< Typhoon 198217 1982 Season Typhoon 198219 >
Typhoon 198218 (JUDY)
General InformationTrack Information on Google MapsDetailed Wind InformationList of All Images || NewsDisaster Info.ResourceGoogle EarthGE AnimationAtom FeedGeoJSON
Detalied Best Track (Time Zone = UTC)
Year Month Day Hour Lat. Long. Pressure (hPa) Wind (kt) Class Image Chart
1982 9 5 12 12.9 144.6 1002 0 2 Image Chart
1982 9 5 18 13.0 144.4 1000 0 2 Image Chart
1982 9 6 00 12.8 143.5 994 45 3 Image Chart
1982 9 6 06 13.1 143.1 994 45 3 Image Chart
1982 9 6 12 13.7 142.5 992 45 3 Image Chart
1982 9 6 18 14.1 142.1 988 45 3 Image Chart
1982 9 7 00 14.6 141.5 988 45 3 Image Chart
1982 9 7 06 15.1 140.6 985 55 4 Image Chart
1982 9 7 12 15.9 139.7 985 55 4 Image Chart
1982 9 7 18 16.7 138.7 985 55 4 Image Chart
1982 9 8 00 17.5 137.8 975 60 4 Image Chart
1982 9 8 06 18.3 137.0 970 65 5 Image Chart
1982 9 8 12 19.3 136.2 965 70 5 Image Chart
1982 9 8 18 20.5 135.4 960 70 5 Image Chart
1982 9 9 00 21.5 134.6 955 80 5 Image Chart
1982 9 9 06 22.4 133.8 960 80 5 Image Chart
1982 9 9 12 23.2 133.5 960 80 5 Image Chart
1982 9 9 18 24.1 133.7 960 80 5 Image Chart
1982 9 10 00 24.8 133.7 965 70 5 Image Chart
1982 9 10 06 25.4 134.0 965 70 5 Image Chart
1982 9 10 12 25.9 134.4 965 70 5 Image Chart
1982 9 10 18 26.5 134.8 965 70 5 Image Chart
1982 9 11 00 27.1 135.4 965 70 5 Image Chart
1982 9 11 06 27.8 135.8 965 70 5 Image Chart
1982 9 11 12 28.3 136.3 965 70 5 Image Chart
1982 9 11 18 29.8 136.7 965 70 5 Image Chart
1982 9 12 00 31.6 136.8 965 70 5 Image Chart
1982 9 12 06 33.6 137.3 965 70 5 Image Chart
1982 9 12 12 36.0 139.3 980 60 4 Image Chart
1982 9 12 18 39.7 140.6 984 50 4 Image Chart
1982 9 13 00 42.0 142.0 986 0 6 Image Chart
1982 9 13 06 45.0 144.0 986 0 6 Image Chart
1982 9 13 12 47.0 146.0 986 0 6 Image Chart
1982 9 13 18 49.0 148.0 986 0 6 Image Chart
1982 9 14 00 50.0 150.0 986 0 6 Image Chart
1982 9 14 06 51.0 152.5 984 0 6 Image Chart
1982 9 14 12 51.0 155.0 980 0 6 Image Chart
1982 9 14 18 50.0 159.0 984 0 6 Image Chart
1982 9 15 00 49.0 162.0 990 0 6 Image Chart
1982 9 15 06 48.0 166.0 994 0 6 Image Chart
1982 9 15 12 46.0 172.0 996 0 6 Image Chart
1982 9 15 18 45.0 177.0 998 0 6 Image Chart
Japan Meteorological Agency Best Track Data | Correction Date : 1992-10-21
< Typhoon 198217 1982 Season Typhoon 198219 >

Help